sensor_id;sensor_type;location;lat;lon;timestamp;pressure;altitude;pressure_sealevel;temperature;humidity
32324;BME280;25666;44.350;9.222;2022-09-09T00:01:15;101154.06;;;23.45;100.00
32324;BME280;25666;44.350;9.222;2022-09-09T00:09:26;101146.50;;;23.31;100.00
32324;BME280;25666;44.350;9.222;2022-09-09T00:11:57;101137.72;;;23.22;100.00
32324;BME280;25666;44.350;9.222;2022-09-09T00:17:44;101138.81;;;23.02;100.00
32324;BME280;25666;44.350;9.222;2022-09-09T00:20:28;101140.19;;;23.20;100.00
32324;BME280;25666;44.350;9.222;2022-09-09T00:23:24;101145.91;;;22.86;100.00
32324;BME280;25666;44.350;9.222;2022-09-09T00:28:26;101146.03;;;22.76;100.00
32324;BME280;25666;44.350;9.222;2022-09-09T00:30:52;101145.72;;;23.01;100.00
32324;BME280;25666;44.350;9.222;2022-09-09T00:33:23;101150.13;;;22.71;100.00
32324;BME280;25666;44.350;9.222;2022-09-09T00:35:53;101150.91;;;22.75;100.00
32324;BME280;25666;44.350;9.222;2022-09-09T00:41:06;101147.19;;;22.82;100.00
32324;BME280;25666;44.350;9.222;2022-09-09T00:43:39;101143.44;;;22.88;100.00
32324;BME280;25666;44.350;9.222;2022-09-09T01:02:16;101127.97;;;22.93;100.00
32324;BME280;25666;44.350;9.222;2022-09-09T01:04:43;101128.03;;;22.89;100.00
32324;BME280;25666;44.350;9.222;2022-09-09T01:07:19;101119.94;;;22.88;100.00
32324;BME280;25666;44.350;9.222;2022-09-09T01:09:58;101114.78;;;22.79;100.00
32324;BME280;25666;44.350;9.222;2022-09-09T01:15:13;101115.91;;;22.52;100.00
32324;BME280;25666;44.350;9.222;2022-09-09T01:18:14;101110.22;;;22.52;100.00
32324;BME280;25666;44.350;9.222;2022-09-09T01:26:59;101099.47;;;22.73;100.00
32324;BME280;25666;44.350;9.222;2022-09-09T01:29:26;101090.22;;;22.66;100.00
32324;BME280;25666;44.350;9.222;2022-09-09T01:31:53;101093.56;;;22.54;100.00
32324;BME280;25666;44.350;9.222;2022-09-09T01:34:20;101092.25;;;22.62;100.00
32324;BME280;25666;44.350;9.222;2022-09-09T01:36:49;101091.34;;;22.38;100.00
32324;BME280;25666;44.350;9.222;2022-09-09T01:39:19;101088.56;;;22.65;100.00
32324;BME280;25666;44.350;9.222;2022-09-09T01:41:48;101088.28;;;22.56;100.00
32324;BME280;25666;44.350;9.222;2022-09-09T01:44:16;101088.38;;;22.49;100.00
32324;BME280;25666;44.350;9.222;2022-09-09T01:46:44;101089.91;;;22.57;100.00
32324;BME280;25666;44.350;9.222;2022-09-09T01:49:16;101091.56;;;22.54;100.00
32324;BME280;25666;44.350;9.222;2022-09-09T01:51:43;101077.78;;;22.53;100.00
32324;BME280;25666;44.350;9.222;2022-09-09T01:54:13;101082.56;;;22.59;100.00
32324;BME280;25666;44.350;9.222;2022-09-09T01:59:39;101086.28;;;22.53;100.00
32324;BME280;25666;44.350;9.222;2022-09-09T02:02:11;101090.78;;;22.50;100.00
32324;BME280;25666;44.350;9.222;2022-09-09T02:04:44;101092.81;;;22.50;100.00
32324;BME280;25666;44.350;9.222;2022-09-09T02:07:31;101092.25;;;22.62;100.00
32324;BME280;25666;44.350;9.222;2022-09-09T02:10:14;101086.56;;;22.65;100.00
32324;BME280;25666;44.350;9.222;2022-09-09T02:12:58;101086.84;;;22.74;100.00
32324;BME280;25666;44.350;9.222;2022-09-09T02:15:35;101088.50;;;22.72;100.00
32324;BME280;25666;44.350;9.222;2022-09-09T02:18:08;101091.84;;;22.63;100.00
32324;BME280;25666;44.350;9.222;2022-09-09T02:20:38;101088.44;;;22.79;100.00
32324;BME280;25666;44.350;9.222;2022-09-09T02:23:05;101086.28;;;22.53;100.00
32324;BME280;25666;44.350;9.222;2022-09-09T02:25:35;101085.78;;;22.61;100.00
32324;BME280;25666;44.350;9.222;2022-09-09T02:28:13;101081.19;;;22.74;100.00
32324;BME280;25666;44.350;9.222;2022-09-09T02:30:42;101087.00;;;22.60;100.00
32324;BME280;25666;44.350;9.222;2022-09-09T02:33:11;101088.38;;;22.49;100.00
32324;BME280;25666;44.350;9.222;2022-09-09T02:35:43;101092.06;;;22.46;100.00
32324;BME280;25666;44.350;9.222;2022-09-09T02:38:13;101085.16;;;22.47;100.00
32324;BME280;25666;44.350;9.222;2022-09-09T02:40:45;101077.13;;;22.41;100.00
32324;BME280;25666;44.350;9.222;2022-09-09T02:43:11;101078.78;;;22.39;100.00
32324;BME280;25666;44.350;9.222;2022-09-09T02:45:46;101083.41;;;22.22;100.00
32324;BME280;25666;44.350;9.222;2022-09-09T02:51:08;101080.09;;;22.27;100.00
32324;BME280;25666;44.350;9.222;2022-09-09T02:56:16;101086.28;;;22.19;100.00
32324;BME280;25666;44.350;9.222;2022-09-09T02:58:45;101071.75;;;22.13;100.00
32324;BME280;25666;44.350;9.222;2022-09-09T03:01:11;101071.53;;;21.97;100.00
32324;BME280;25666;44.350;9.222;2022-09-09T03:03:37;101079.66;;;21.95;100.00
32324;BME280;25666;44.350;9.222;2022-09-09T03:06:08;101074.00;;;21.92;100.00
32324;BME280;25666;44.350;9.222;2022-09-09T03:08:33;101073.16;;;21.95;100.00
32324;BME280;25666;44.350;9.222;2022-09-09T03:11:00;101074.00;;;21.92;100.00
32324;BME280;25666;44.350;9.222;2022-09-09T03:13:31;101077.97;;;22.01;100.00
32324;BME280;25666;44.350;9.222;2022-09-09T03:15:57;101077.13;;;22.04;100.00
32324;BME280;25666;44.350;9.222;2022-09-09T03:18:23;101071.19;;;21.92;100.00
32324;BME280;25666;44.350;9.222;2022-09-09T03:20:51;101068.50;;;21.74;100.00
32324;BME280;25666;44.350;9.222;2022-09-09T03:23:18;101073.88;;;21.58;100.00
32324;BME280;25666;44.350;9.222;2022-09-09T03:25:48;101069.31;;;21.71;100.00
32324;BME280;25666;44.350;9.222;2022-09-09T03:28:16;101070.13;;;21.68;100.00
32324;BME280;25666;44.350;9.222;2022-09-09T03:30:42;101073.09;;;21.57;100.00
32324;BME280;25666;44.350;9.222;2022-09-09T03:33:08;101074.66;;;21.58;100.00
32324;BME280;25666;44.350;9.222;2022-09-09T03:35:34;101066.06;;;21.72;100.00
32324;BME280;25666;44.350;9.222;2022-09-09T03:37:59;101066.06;;;21.72;100.00
32324;BME280;25666;44.350;9.222;2022-09-09T03:40:26;101058.47;;;21.62;100.00
32324;BME280;25666;44.350;9.222;2022-09-09T03:42:52;101058.88;;;21.64;100.00
32324;BME280;25666;44.350;9.222;2022-09-09T03:45:18;101059.25;;;21.63;100.00
32324;BME280;25666;44.350;9.222;2022-09-09T03:47:43;101063.78;;;21.53;100.00
32324;BME280;25666;44.350;9.222;2022-09-09T03:50:09;101060.63;;;21.48;100.00
32324;BME280;25666;44.350;9.222;2022-09-09T03:52:41;101061.00;;;21.50;100.00
32324;BME280;25666;44.350;9.222;2022-09-09T03:55:13;101050.41;;;21.57;100.00
32324;BME280;25666;44.350;9.222;2022-09-09T03:57:39;101046.78;;;21.57;100.00
32324;BME280;25666;44.350;9.222;2022-09-09T04:00:08;101045.63;;;21.51;100.00
32324;BME280;25666;44.350;9.222;2022-09-09T04:02:44;101046.56;;;21.33;100.00
32324;BME280;25666;44.350;9.222;2022-09-09T04:05:12;101051.16;;;21.13;100.00
32324;BME280;25666;44.350;9.222;2022-09-09T04:07:41;101046.19;;;21.31;100.00
32324;BME280;25666;44.350;9.222;2022-09-09T04:10:07;101049.50;;;21.19;100.00
32324;BME280;25666;44.350;9.222;2022-09-09T04:12:34;101041.50;;;21.11;100.00
32324;BME280;25666;44.350;9.222;2022-09-09T04:15:00;101040.94;;;21.30;100.00
32324;BME280;25666;44.350;9.222;2022-09-09T04:17:27;101038.13;;;21.26;100.00
32324;BME280;25666;44.350;9.222;2022-09-09T04:19:53;101046.28;;;21.17;100.00
32324;BME280;25666;44.350;9.222;2022-09-09T04:22:20;101043.47;;;21.14;100.00
32324;BME280;25666;44.350;9.222;2022-09-09T04:24:48;101043.13;;;21.05;100.00
32324;BME280;25666;44.350;9.222;2022-09-09T04:27:14;101044.84;;;20.84;100.00
32324;BME280;25666;44.350;9.222;2022-09-09T04:29:39;101041.50;;;21.11;100.00
32324;BME280;25666;44.350;9.222;2022-09-09T04:32:06;101045.19;;;20.94;100.00
32324;BME280;25666;44.350;9.222;2022-09-09T04:34:32;101039.03;;;21.06;100.00
32324;BME280;25666;44.350;9.222;2022-09-09T04:36:58;101039.13;;;20.99;100.00
32324;BME280;25666;44.350;9.222;2022-09-09T04:39:25;101042.69;;;21.03;100.00
32324;BME280;25666;44.350;9.222;2022-09-09T04:41:50;101033.41;;;21.02;100.00
32324;BME280;25666;44.350;9.222;2022-09-09T04:44:16;101043.66;;;20.78;100.00
32324;BME280;25666;44.350;9.222;2022-09-09T04:46:42;101054.06;;;20.96;100.00
32324;BME280;25666;44.350;9.222;2022-09-09T04:49:07;101055.19;;;21.16;100.00
32324;BME280;25666;44.350;9.222;2022-09-09T04:51:33;101052.50;;;20.91;100.00
32324;BME280;25666;44.350;9.222;2022-09-09T04:53:59;101052.03;;;20.96;100.00
32324;BME280;25666;44.350;9.222;2022-09-09T04:56:25;101052.53;;;20.84;100.00
32324;BME280;25666;44.350;9.222;2022-09-09T04:58:56;101052.94;;;20.86;100.00
32324;BME280;25666;44.350;9.222;2022-09-09T05:01:26;101055.31;;;20.95;100.00
32324;BME280;25666;44.350;9.222;2022-09-09T05:03:58;101057.28;;;21.01;100.00
32324;BME280;25666;44.350;9.222;2022-09-09T05:06:23;101048.41;;;20.96;100.00
32324;BME280;25666;44.350;9.222;2022-09-09T05:08:55;101056.09;;;20.99;100.00
32324;BME280;25666;44.350;9.222;2022-09-09T05:11:31;101051.66;;;20.94;100.00
32324;BME280;25666;44.350;9.222;2022-09-09T05:14:17;101059.03;;;20.77;100.00
32324;BME280;25666;44.350;9.222;2022-09-09T05:16:45;101055.69;;;20.97;100.00
32324;BME280;25666;44.350;9.222;2022-09-09T05:19:10;101060.50;;;21.10;100.00
32324;BME280;25666;44.350;9.222;2022-09-09T05:21:46;101056.13;;;20.95;100.00
32324;BME280;25666;44.350;9.222;2022-09-09T05:24:13;101061.69;;;21.06;100.00
32324;BME280;25666;44.350;9.222;2022-09-09T05:26:39;101064.53;;;21.09;100.00
32324;BME280;25666;44.350;9.222;2022-09-09T05:29:06;101068.47;;;21.26;100.00
32324;BME280;25666;44.350;9.222;2022-09-09T05:31:31;101070.28;;;20.92;100.00
32324;BME280;25666;44.350;9.222;2022-09-09T05:34:01;101077.09;;;21.05;100.00
32324;BME280;25666;44.350;9.222;2022-09-09T05:36:27;101079.78;;;21.26;100.00
32324;BME280;25666;44.350;9.222;2022-09-09T05:38:55;101087.00;;;21.34;100.00
32324;BME280;25666;44.350;9.222;2022-09-09T05:41:21;101089.81;;;21.38;100.00
32324;BME280;25666;44.350;9.222;2022-09-09T05:43:48;101087.75;;;21.45;100.00
32324;BME280;25666;44.350;9.222;2022-09-09T05:46:19;101087.34;;;21.43;100.00
32324;BME280;25666;44.350;9.222;2022-09-09T05:48:47;101092.56;;;21.52;100.00
32324;BME280;25666;44.350;9.222;2022-09-09T05:51:18;101100.34;;;21.88;100.00
32324;BME280;25666;44.350;9.222;2022-09-09T05:53:44;101091.66;;;22.43;100.00
32324;BME280;25666;44.350;9.222;2022-09-09T05:56:15;101085.91;;;22.51;100.00
32324;BME280;25666;44.350;9.222;2022-09-09T05:58:41;101090.00;;;22.12;100.00
32324;BME280;25666;44.350;9.222;2022-09-09T06:01:17;101087.66;;;23.05;100.00
32324;BME280;25666;44.350;9.222;2022-09-09T06:03:45;101082.81;;;24.68;100.00
32324;BME280;25666;44.350;9.222;2022-09-09T06:06:13;101089.72;;;24.05;100.00
32324;BME280;25666;44.350;9.222;2022-09-09T06:08:41;101087.34;;;23.26;100.00
32324;BME280;25666;44.350;9.222;2022-09-09T06:11:16;101087.13;;;23.67;100.00
32324;BME280;25666;44.350;9.222;2022-09-09T06:13:42;101088.72;;;27.25;100.00
32324;BME280;25666;44.350;9.222;2022-09-09T06:16:09;101079.81;;;28.86;100.00
32324;BME280;25666;44.350;9.222;2022-09-09T06:18:38;101073.75;;;29.45;100.00
32324;BME280;25666;44.350;9.222;2022-09-09T06:21:06;101069.47;;;29.10;100.00
32324;BME280;25666;44.350;9.222;2022-09-09T06:23:33;101077.31;;;30.62;100.00
32324;BME280;25666;44.350;9.222;2022-09-09T06:26:10;101084.31;;;31.96;100.00
32324;BME280;25666;44.350;9.222;2022-09-09T06:28:36;101081.09;;;32.26;100.00
32324;BME280;25666;44.350;9.222;2022-09-09T06:31:07;101082.28;;;32.87;100.00
32324;BME280;25666;44.350;9.222;2022-09-09T06:33:38;101082.44;;;33.57;100.00
32324;BME280;25666;44.350;9.222;2022-09-09T06:38:44;101070.88;;;33.92;100.00
32324;BME280;25666;44.350;9.222;2022-09-09T06:41:13;101071.59;;;34.07;100.00
32324;BME280;25666;44.350;9.222;2022-09-09T06:43:40;101065.19;;;34.18;100.00
32324;BME280;25666;44.350;9.222;2022-09-09T06:46:11;101068.34;;;34.40;100.00
32324;BME280;25666;44.350;9.222;2022-09-09T06:48:39;101059.81;;;34.31;100.00
32324;BME280;25666;44.350;9.222;2022-09-09T06:51:16;101060.03;;;34.68;100.00
32324;BME280;25666;44.350;9.222;2022-09-09T06:53:43;101063.19;;;34.95;99.64
32324;BME280;25666;44.350;9.222;2022-09-09T06:58:39;101073.28;;;35.74;93.70
32324;BME280;25666;44.350;9.222;2022-09-09T07:01:26;101075.81;;;34.72;99.83
32324;BME280;25666;44.350;9.222;2022-09-09T07:03:55;101076.41;;;35.33;94.07
32324;BME280;25666;44.350;9.222;2022-09-09T07:06:24;101077.50;;;35.73;92.29
32324;BME280;25666;44.350;9.222;2022-09-09T07:08:56;101070.78;;;35.24;97.51
32324;BME280;25666;44.350;9.222;2022-09-09T07:11:30;101070.25;;;34.69;97.08
32324;BME280;25666;44.350;9.222;2022-09-09T07:13:58;101074.25;;;33.70;90.95
32324;BME280;25666;44.350;9.222;2022-09-09T07:16:25;101072.19;;;32.39;98.05
32324;BME280;25666;44.350;9.222;2022-09-09T07:18:54;101074.38;;;31.40;100.00
32324;BME280;25666;44.350;9.222;2022-09-09T07:21:27;101077.28;;;30.07;100.00
32324;BME280;25666;44.350;9.222;2022-09-09T07:23:53;101074.38;;;28.79;100.00
32324;BME280;25666;44.350;9.222;2022-09-09T07:26:22;101076.72;;;28.02;100.00
32324;BME280;25666;44.350;9.222;2022-09-09T07:28:49;101083.38;;;27.99;100.00
32324;BME280;25666;44.350;9.222;2022-09-09T07:31:17;101081.38;;;27.75;100.00
32324;BME280;25666;44.350;9.222;2022-09-09T07:33:45;101080.78;;;27.80;100.00
32324;BME280;25666;44.350;9.222;2022-09-09T07:38:52;101081.28;;;27.40;100.00
32324;BME280;25666;44.350;9.222;2022-09-09T07:41:25;101078.75;;;27.17;100.00
32324;BME280;25666;44.350;9.222;2022-09-09T07:43:52;101084.00;;;27.06;100.00
32324;BME280;25666;44.350;9.222;2022-09-09T07:46:23;101088.94;;;26.77;100.00
32324;BME280;25666;44.350;9.222;2022-09-09T07:48:52;101089.53;;;26.72;100.00
32324;BME280;25666;44.350;9.222;2022-09-09T07:51:25;101095.97;;;26.59;100.00
32324;BME280;25666;44.350;9.222;2022-09-09T07:53:55;101089.34;;;26.50;100.00
32324;BME280;25666;44.350;9.222;2022-09-09T07:56:21;101096.28;;;26.49;100.00
32324;BME280;25666;44.350;9.222;2022-09-09T07:58:51;101102.38;;;26.35;100.00
32324;BME280;25666;44.350;9.222;2022-09-09T08:01:30;101103.38;;;26.28;100.00
32324;BME280;25666;44.350;9.222;2022-09-09T08:04:02;101103.50;;;26.25;100.00
32324;BME280;25666;44.350;9.222;2022-09-09T08:06:31;101104.84;;;26.20;100.00
32324;BME280;25666;44.350;9.222;2022-09-09T08:08:58;101114.81;;;26.12;100.00
32324;BME280;25666;44.350;9.222;2022-09-09T08:11:27;101116.41;;;26.13;100.00
32324;BME280;25666;44.350;9.222;2022-09-09T08:13:54;101116.41;;;26.13;100.00
32324;BME280;25666;44.350;9.222;2022-09-09T08:16:23;101120.16;;;26.10;100.00
32324;BME280;25666;44.350;9.222;2022-09-09T08:18:52;101126.75;;;26.07;100.00
32324;BME280;25666;44.350;9.222;2022-09-09T08:21:21;101133.72;;;26.06;100.00
32324;BME280;25666;44.350;9.222;2022-09-09T08:23:50;101128.91;;;26.03;100.00
32324;BME280;25666;44.350;9.222;2022-09-09T08:26:19;101133.81;;;26.02;100.00
32324;BME280;25666;44.350;9.222;2022-09-09T08:28:49;101131.78;;;26.03;100.00
32324;BME280;25666;44.350;9.222;2022-09-09T08:31:22;101136.22;;;26.04;100.00
32324;BME280;25666;44.350;9.222;2022-09-09T08:33:48;101138.53;;;26.09;100.00
32324;BME280;25666;44.350;9.222;2022-09-09T08:36:16;101132.22;;;26.01;100.00
32324;BME280;25666;44.350;9.222;2022-09-09T08:38:42;101137.47;;;26.03;100.00
32324;BME280;25666;44.350;9.222;2022-09-09T08:47:56;101138.63;;;26.05;100.00
32324;BME280;25666;44.350;9.222;2022-09-09T08:50:38;101141.47;;;26.05;100.00
32324;BME280;25666;44.350;9.222;2022-09-09T08:55:56;101150.97;;;26.19;100.00
32324;BME280;25666;44.350;9.222;2022-09-09T08:58:54;101147.72;;;26.17;100.00
32324;BME280;25666;44.350;9.222;2022-09-09T09:07:04;101150.22;;;26.15;100.00
32324;BME280;25666;44.350;9.222;2022-09-09T09:12:28;101150.16;;;26.18;100.00
32324;BME280;25666;44.350;9.222;2022-09-09T09:14:55;101150.41;;;26.24;100.00
32324;BME280;25666;44.350;9.222;2022-09-09T09:17:26;101152.78;;;26.25;100.00
32324;BME280;25666;44.350;9.222;2022-09-09T09:19:53;101158.97;;;26.24;100.00
32324;BME280;25666;44.350;9.222;2022-09-09T09:22:41;101155.22;;;26.27;100.00
32324;BME280;25666;44.350;9.222;2022-09-09T09:25:23;101144.34;;;26.22;100.00
32324;BME280;25666;44.350;9.222;2022-09-09T09:28:15;101160.59;;;26.25;100.00
32324;BME280;25666;44.350;9.222;2022-09-09T09:31:01;101159.06;;;26.20;100.00
32324;BME280;25666;44.350;9.222;2022-09-09T09:33:48;101151.56;;;26.26;100.00
32324;BME280;25666;44.350;9.222;2022-09-09T09:36:16;101153.59;;;26.26;100.00
32324;BME280;25666;44.350;9.222;2022-09-09T09:38:58;101147.63;;;26.20;100.00
32324;BME280;25666;44.350;9.222;2022-09-09T09:41:40;101156.19;;;26.20;100.00
32324;BME280;25666;44.350;9.222;2022-09-09T09:44:29;101161.34;;;26.25;100.00
32324;BME280;25666;44.350;9.222;2022-09-09T09:49:34;101154.41;;;26.26;100.00
32324;BME280;25666;44.350;9.222;2022-09-09T09:52:01;101154.72;;;26.16;100.00
32324;BME280;25666;44.350;9.222;2022-09-09T09:54:38;101157.97;;;26.14;100.00
32324;BME280;25666;44.350;9.222;2022-09-09T09:57:12;101159.16;;;26.17;100.00
32324;BME280;25666;44.350;9.222;2022-09-09T09:59:39;101166.91;;;26.16;100.00
32324;BME280;25666;44.350;9.222;2022-09-09T10:02:15;101156.28;;;26.17;100.00
32324;BME280;25666;44.350;9.222;2022-09-09T10:04:41;101155.22;;;26.27;100.00
32324;BME280;25666;44.350;9.222;2022-09-09T10:07:25;101152.44;;;26.23;100.00
32324;BME280;25666;44.350;9.222;2022-09-09T10:09:54;101155.22;;;26.27;100.00
32324;BME280;25666;44.350;9.222;2022-09-09T10:12:45;101147.91;;;26.26;100.00
32324;BME280;25666;44.350;9.222;2022-09-09T10:15:31;101149.50;;;26.27;100.00
32324;BME280;25666;44.350;9.222;2022-09-09T10:18:17;101144.34;;;26.22;100.00
32324;BME280;25666;44.350;9.222;2022-09-09T10:24:07;101152.03;;;26.25;100.00
32324;BME280;25666;44.350;9.222;2022-09-09T10:35:12;101158.16;;;26.23;100.00
32324;BME280;25666;44.350;9.222;2022-09-09T10:42:55;101160.84;;;26.30;100.00
32324;BME280;25666;44.350;9.222;2022-09-09T10:45:48;101159.78;;;26.24;100.00
32324;BME280;25666;44.350;9.222;2022-09-09T10:48:26;101160.28;;;26.35;100.00
32324;BME280;25666;44.350;9.222;2022-09-09T10:51:02;101161.97;;;26.33;100.00
32324;BME280;25666;44.350;9.222;2022-09-09T10:56:20;101150.00;;;26.38;100.00
32324;BME280;25666;44.350;9.222;2022-09-09T11:01:44;101156.00;;;26.43;100.00
32324;BME280;25666;44.350;9.222;2022-09-09T11:07:10;101149.88;;;26.57;100.00
32324;BME280;25666;44.350;9.222;2022-09-09T11:09:44;101161.63;;;26.47;100.00
32324;BME280;25666;44.350;9.222;2022-09-09T11:12:14;101161.00;;;26.39;100.00
32324;BME280;25666;44.350;9.222;2022-09-09T11:14:53;101166.69;;;26.39;100.00
32324;BME280;25666;44.350;9.222;2022-09-09T11:17:35;101158.78;;;26.31;100.00
32324;BME280;25666;44.350;9.222;2022-09-09T11:20:02;101159.84;;;26.37;100.00
32324;BME280;25666;44.350;9.222;2022-09-09T11:25:23;101150.75;;;26.26;100.00
32324;BME280;25666;44.350;9.222;2022-09-09T11:31:03;101148.34;;;26.40;100.00
32324;BME280;25666;44.350;9.222;2022-09-09T11:38:59;101136.19;;;26.36;100.00
32324;BME280;25666;44.350;9.222;2022-09-09T11:41:33;101138.50;;;26.41;100.00
32324;BME280;25666;44.350;9.222;2022-09-09T11:43:59;101145.63;;;26.49;100.00
32324;BME280;25666;44.350;9.222;2022-09-09T11:46:37;101150.72;;;26.42;100.00
32324;BME280;25666;44.350;9.222;2022-09-09T11:49:21;101144.91;;;26.45;100.00
32324;BME280;25666;44.350;9.222;2022-09-09T11:51:50;101152.34;;;26.43;100.00
32324;BME280;25666;44.350;9.222;2022-09-09T11:54:49;101152.97;;;26.34;100.00
32324;BME280;25666;44.350;9.222;2022-09-09T11:57:30;101151.81;;;26.32;100.00
32324;BME280;25666;44.350;9.222;2022-09-09T11:59:56;101143.63;;;26.34;100.00
32324;BME280;25666;44.350;9.222;2022-09-09T12:02:27;101147.81;;;26.29;100.00
32324;BME280;25666;44.350;9.222;2022-09-09T12:05:07;101150.06;;;26.50;100.00
32324;BME280;25666;44.350;9.222;2022-09-09T12:07:51;101155.28;;;26.39;100.00
32324;BME280;25666;44.350;9.222;2022-09-09T12:10:33;101157.88;;;26.34;100.00
32324;BME280;25666;44.350;9.222;2022-09-09T12:13:20;101155.28;;;26.39;100.00
32324;BME280;25666;44.350;9.222;2022-09-09T12:18:22;101162.44;;;26.31;100.00
32324;BME280;25666;44.350;9.222;2022-09-09T12:23:48;101145.31;;;26.31;100.00
32324;BME280;25666;44.350;9.222;2022-09-09T12:26:36;101148.28;;;26.28;100.00
32324;BME280;25666;44.350;9.222;2022-09-09T12:32:10;101149.78;;;26.16;100.00
32324;BME280;25666;44.350;9.222;2022-09-09T12:34:41;101154.97;;;26.21;100.00
32324;BME280;25666;44.350;9.222;2022-09-09T12:39:47;101144.94;;;26.13;100.00
32324;BME280;25666;44.350;9.222;2022-09-09T12:42:20;101149.75;;;26.32;100.00
32324;BME280;25666;44.350;9.222;2022-09-09T12:44:57;101155.03;;;26.34;100.00
32324;BME280;25666;44.350;9.222;2022-09-09T12:47:36;101147.72;;;26.17;100.00
32324;BME280;25666;44.350;9.222;2022-09-09T12:50:04;101147.63;;;26.20;100.00
32324;BME280;25666;44.350;9.222;2022-09-09T12:52:35;101153.34;;;26.20;100.00
32324;BME280;25666;44.350;9.222;2022-09-09T12:55:05;101152.69;;;26.13;100.00
32324;BME280;25666;44.350;9.222;2022-09-09T12:57:35;101143.19;;;26.03;100.00
32324;BME280;25666;44.350;9.222;2022-09-09T13:00:16;101146.72;;;26.07;100.00
32324;BME280;25666;44.350;9.222;2022-09-09T13:02:55;101148.88;;;26.19;100.00
32324;BME280;25666;44.350;9.222;2022-09-09T13:05:24;101142.34;;;26.35;100.00
32324;BME280;25666;44.350;9.222;2022-09-09T13:07:51;101141.28;;;26.29;100.00
32324;BME280;25666;44.350;9.222;2022-09-09T13:10:28;101139.88;;;26.21;100.00
32324;BME280;25666;44.350;9.222;2022-09-09T13:12:55;101142.47;;;26.31;100.00
32324;BME280;25666;44.350;9.222;2022-09-09T13:15:26;101138.97;;;26.40;100.00
32324;BME280;25666;44.350;9.222;2022-09-09T13:17:59;101147.78;;;26.45;100.00
32324;BME280;25666;44.350;9.222;2022-09-09T13:20:27;101148.03;;;26.51;100.00
32324;BME280;25666;44.350;9.222;2022-09-09T13:22:54;101143.47;;;26.53;100.00
32324;BME280;25666;44.350;9.222;2022-09-09T13:25:26;101140.44;;;26.44;100.00
32324;BME280;25666;44.350;9.222;2022-09-09T13:28:00;101136.69;;;26.47;100.00
32324;BME280;25666;44.350;9.222;2022-09-09T13:30:30;101145.03;;;26.26;100.00
32324;BME280;25666;44.350;9.222;2022-09-09T13:35:54;101143.34;;;26.28;100.00
32324;BME280;25666;44.350;9.222;2022-09-09T13:38:20;101141.66;;;26.31;100.00
32324;BME280;25666;44.350;9.222;2022-09-09T13:41:00;101139.63;;;26.31;100.00
32324;BME280;25666;44.350;9.222;2022-09-09T13:43:32;101134.44;;;26.26;100.00
32324;BME280;25666;44.350;9.222;2022-09-09T13:46:01;101131.44;;;26.46;100.00
32324;BME280;25666;44.350;9.222;2022-09-09T13:48:27;101127.97;;;26.38;100.00
32324;BME280;25666;44.350;9.222;2022-09-09T13:50:58;101130.34;;;26.27;100.00
32324;BME280;25666;44.350;9.222;2022-09-09T13:53:24;101126.94;;;26.16;100.00
32324;BME280;25666;44.350;9.222;2022-09-09T13:55:50;101128.19;;;26.15;100.00
32324;BME280;25666;44.350;9.222;2022-09-09T13:58:17;101134.78;;;26.12;100.00
32324;BME280;25666;44.350;9.222;2022-09-09T14:00:44;101129.38;;;26.18;100.00
32324;BME280;25666;44.350;9.222;2022-09-09T14:03:10;101123.72;;;26.14;100.00
32324;BME280;25666;44.350;9.222;2022-09-09T14:05:36;101126.66;;;26.10;100.00
32324;BME280;25666;44.350;9.222;2022-09-09T14:08:04;101120.53;;;26.12;100.00
32324;BME280;25666;44.350;9.222;2022-09-09T14:10:29;101132.03;;;26.08;100.00
32324;BME280;25666;44.350;9.222;2022-09-09T14:12:55;101129.53;;;25.94;100.00
32324;BME280;25666;44.350;9.222;2022-09-09T14:15:21;101129.44;;;25.82;100.00
32324;BME280;25666;44.350;9.222;2022-09-09T14:17:47;101126.16;;;25.83;100.00
32324;BME280;25666;44.350;9.222;2022-09-09T14:20:14;101122.34;;;25.90;100.00
32324;BME280;25666;44.350;9.222;2022-09-09T14:22:41;101132.75;;;25.96;100.00
32324;BME280;25666;44.350;9.222;2022-09-09T14:25:07;101136.22;;;26.04;100.00
32324;BME280;25666;44.350;9.222;2022-09-09T14:27:33;101136.38;;;26.13;100.00
32324;BME280;25666;44.350;9.222;2022-09-09T14:29:58;101135.88;;;26.02;100.00
32324;BME280;25666;44.350;9.222;2022-09-09T14:32:26;101127.31;;;26.02;100.00
32324;BME280;25666;44.350;9.222;2022-09-09T14:34:52;101133.81;;;26.02;100.00
32324;BME280;25666;44.350;9.222;2022-09-09T14:37:18;101127.81;;;26.13;100.00
32324;BME280;25666;44.350;9.222;2022-09-09T14:39:43;101144.44;;;26.18;100.00
32324;BME280;25666;44.350;9.222;2022-09-09T14:42:10;101131.94;;;26.12;100.00
32324;BME280;25666;44.350;9.222;2022-09-09T14:44:37;101138.09;;;26.10;100.00
32324;BME280;25666;44.350;9.222;2022-09-09T14:47:05;101135.94;;;26.15;100.00
32324;BME280;25666;44.350;9.222;2022-09-09T14:49:30;101134.72;;;26.16;100.00
32324;BME280;25666;44.350;9.222;2022-09-09T14:51:57;101139.22;;;26.13;100.00
32324;BME280;25666;44.350;9.222;2022-09-09T14:54:22;101139.44;;;26.06;100.00
32324;BME280;25666;44.350;9.222;2022-09-09T14:56:48;101138.97;;;26.07;100.00
32324;BME280;25666;44.350;9.222;2022-09-09T14:59:14;101131.88;;;25.99;100.00
32324;BME280;25666;44.350;9.222;2022-09-09T15:01:40;101136.38;;;25.97;100.00
32324;BME280;25666;44.350;9.222;2022-09-09T15:04:06;101127.41;;;25.98;100.00
32324;BME280;25666;44.350;9.222;2022-09-09T15:06:34;101124.88;;;26.00;100.00